Time;durP1;ratioP1;P1;durP2;ratioP2;P2;SDS_P1;SDS_P2;PMS_P1;PMS_P2;Temp;Humidity;BMP_temperature;BMP_pressure;BME280_temperature;BME280_humidity;BME280_pressure;Samples;Min_cycle;Max_cycle;Signal;HPM_P1;HPM_P2
2022/09/17 00:00:37;;;;;;;0.10;0.10;;;22.30;73.30;;;;;;5105977;27;45233;-75
2022/09/17 00:03:05;;;;;;;0.52;0.40;;;22.30;72.90;;;;;;5106048;27;45487;-75
2022/09/17 00:05:32;;;;;;;0.10;0.10;;;22.30;73.20;;;;;;5105386;27;45300;-76
2022/09/17 00:07:59;;;;;;;1.05;0.22;;;22.30;73.10;;;;;;5105358;27;45343;-75
2022/09/17 00:10:26;;;;;;;0.50;0.20;;;22.30;73.20;;;;;;5105848;27;45274;-75
2022/09/17 00:12:53;;;;;;;0.93;0.30;;;22.30;73.00;;;;;;5105470;27;45312;-75
2022/09/17 00:15:19;;;;;;;0.57;0.20;;;22.30;73.10;;;;;;5105113;27;48333;-75
2022/09/17 00:17:48;;;;;;;1.02;0.20;;;22.20;73.10;;;;;;5105316;27;45206;-75
2022/09/17 00:20:14;;;;;;;0.40;0.20;;;22.20;73.10;;;;;;5105708;27;45204;-75
2022/09/17 00:22:41;;;;;;;0.55;0.35;;;22.20;73.20;;;;;;5105356;27;45473;-75
2022/09/17 00:25:08;;;;;;;0.75;0.20;;;22.20;73.10;;;;;;5105231;27;48213;-75
2022/09/17 00:27:35;;;;;;;0.28;0.10;;;22.30;73.10;;;;;;5104869;27;45319;-75
2022/09/17 00:30:03;;;;;;;0.68;0.17;;;22.20;73.00;;;;;;5105685;27;45215;-76
2022/09/17 00:32:30;;;;;;;0.90;0.22;;;22.20;73.10;;;;;;5105444;27;45178;-75
2022/09/17 00:34:58;;;;;;;0.82;0.40;;;22.20;73.10;;;;;;5105103;27;48177;-75
2022/09/17 00:37:25;;;;;;;0.93;0.35;;;22.20;72.90;;;;;;5108762;27;45405;-75
2022/09/17 00:39:52;;;;;;;0.45;0.00;;;22.20;73.30;;;;;;5108741;27;45203;-76
2022/09/17 00:42:19;;;;;;;0.28;0.20;;;22.20;73.10;;;;;;5109172;27;45174;-75
2022/09/17 00:44:49;;;;;;;1.10;0.40;;;22.20;73.20;;;;;;5108515;27;45136;-76
2022/09/17 00:47:24;;;;;;;0.50;0.30;;;22.30;73.30;;;;;;5105710;27;45260;-75
2022/09/17 00:49:55;;;;;;;0.85;0.40;;;22.30;73.20;;;;;;5108721;27;45356;-76
2022/09/17 00:52:28;;;;;;;0.82;0.25;;;22.30;73.20;;;;;;5108824;27;45538;-76
2022/09/17 00:55:00;;;;;;;0.77;0.40;;;22.30;73.30;;;;;;5108523;27;45287;-75
2022/09/17 00:57:28;;;;;;;0.70;0.30;;;22.30;73.20;;;;;;5108508;27;46195;-75
2022/09/17 00:59:55;;;;;;;1.02;0.30;;;22.30;73.50;;;;;;5108291;27;45348;-75
2022/09/17 01:02:22;;;;;;;1.13;0.32;;;22.30;73.20;;;;;;5108635;27;45298;-75
2022/09/17 01:04:50;;;;;;;0.38;0.28;;;22.30;74.10;;;;;;5107673;27;46270;-75
2022/09/17 01:07:35;;;;;;;1.02;0.40;;;22.30;73.20;;;;;;5108327;27;45284;-75
2022/09/17 01:10:12;;;;;;;0.63;0.20;;;22.20;73.10;;;;;;5108393;27;45305;-75
2022/09/17 01:12:56;;;;;;;0.22;0.20;;;22.30;73.10;;;;;;5105377;27;45187;-75
2022/09/17 01:15:30;;;;;;;0.68;0.30;;;22.20;72.90;;;;;;5108078;27;47320;-75
2022/09/17 01:18:10;;;;;;;0.75;0.22;;;22.20;72.90;;;;;;5120601;27;45215;-75
2022/09/17 01:21:11;;;;;;;0.30;0.17;;;22.20;73.10;;;;;;5117456;27;45405;-75
2022/09/17 01:24:22;;;;;;;0.30;0.28;;;22.20;72.90;;;;;;5088238;28;45280;-75
2022/09/17 01:27:19;;;;;;;1.25;0.40;;;22.20;73.10;;;;;;5029434;28;47496;-75
2022/09/17 01:30:03;;;;;;;0.45;0.20;;;22.20;74.00;;;;;;5087503;28;45313;-75
2022/09/17 01:32:39;;;;;;;0.85;0.30;;;22.20;73.00;;;;;;5104548;27;45303;-75
2022/09/17 01:35:14;;;;;;;0.32;0.25;;;22.20;72.90;;;;;;5108141;27;45501;-75
2022/09/17 01:37:47;;;;;;;0.32;0.13;;;22.20;72.90;;;;;;5107872;27;47546;-75
2022/09/17 01:40:23;;;;;;;0.45;0.30;;;22.20;72.90;;;;;;5107476;27;45324;-75
2022/09/17 01:42:56;;;;;;;1.35;0.25;;;22.20;73.10;;;;;;5107760;27;45357;-75
2022/09/17 01:45:29;;;;;;;0.30;0.15;;;22.20;72.50;;;;;;5107933;27;45532;-75
2022/09/17 01:48:03;;;;;;;2.15;0.45;;;22.20;73.00;;;;;;5104050;27;45344;-75
2022/09/17 01:50:49;;;;;;;0.90;0.30;;;22.20;73.00;;;;;;5107651;27;45286;-75
2022/09/17 01:53:18;;;;;;;0.50;0.15;;;22.20;73.10;;;;;;5107668;27;45158;-75
2022/09/17 01:55:48;;;;;;;0.85;0.30;;;22.20;73.00;;;;;;5107831;27;45393;-75
2022/09/17 01:58:21;;;;;;;0.85;0.30;;;22.20;73.00;;;;;;5107137;27;48166;-75
2022/09/17 02:00:53;;;;;;;0.30;0.20;;;22.30;73.00;;;;;;5107326;27;45336;-75
2022/09/17 02:03:25;;;;;;;0.22;0.22;;;22.20;73.00;;;;;;5088158;27;45338;-75
2022/09/17 02:05:56;;;;;;;1.20;0.30;;;22.30;73.00;;;;;;5086737;28;45375;-75
2022/09/17 02:08:30;;;;;;;0.95;0.30;;;22.20;72.90;;;;;;5089416;27;45579;-75
2022/09/17 02:11:02;;;;;;;1.00;0.30;;;22.20;73.80;;;;;;5107065;27;45213;-75
2022/09/17 02:13:36;;;;;;;0.25;0.20;;;22.20;72.80;;;;;;5098900;27;45341;-75
2022/09/17 02:16:07;;;;;;;0.50;0.20;;;22.20;72.70;;;;;;5117271;27;45421;-75
2022/09/17 02:18:40;;;;;;;0.68;0.32;;;22.20;72.50;;;;;;5121862;27;47820;-75
2022/09/17 02:21:11;;;;;;;0.40;0.25;;;22.20;72.50;;;;;;5107171;27;45212;-75
2022/09/17 02:23:47;;;;;;;0.28;0.20;;;22.20;72.30;;;;;;5107384;27;45233;-75
2022/09/17 02:26:18;;;;;;;0.40;0.10;;;22.20;72.60;;;;;;5107493;27;45205;-75
2022/09/17 02:28:49;;;;;;;0.65;0.20;;;22.20;72.60;;;;;;5106489;27;47943;-75
2022/09/17 02:31:17;;;;;;;0.25;0.22;;;22.20;72.60;;;;;;5103580;27;45280;-75
2022/09/17 02:33:49;;;;;;;0.85;0.20;;;22.20;72.80;;;;;;5086235;28;45262;-75
2022/09/17 02:36:16;;;;;;;0.28;0.20;;;22.20;72.80;;;;;;5083463;28;45415;-75
2022/09/17 02:38:45;;;;;;;0.38;0.13;;;22.20;72.70;;;;;;5086071;28;45722;-75
2022/09/17 02:41:16;;;;;;;0.30;0.10;;;22.20;72.60;;;;;;5086204;28;45354;-75
2022/09/17 02:43:55;;;;;;;1.48;0.30;;;22.20;72.80;;;;;;5086287;28;45248;-75
2022/09/17 02:46:36;;;;;;;0.13;0.10;;;22.20;72.80;;;;;;5086683;28;45229;-75
2022/09/17 02:49:35;;;;;;;0.80;0.20;;;22.20;72.80;;;;;;5083256;27;46107;-75
2022/09/17 02:52:12;;;;;;;1.75;0.25;;;22.30;72.70;;;;;;5106009;27;45305;-75
2022/09/17 02:54:45;;;;;;;0.63;0.20;;;22.20;72.70;;;;;;5106889;27;45181;-75
2022/09/17 02:57:20;;;;;;;0.10;0.10;;;22.20;72.60;;;;;;5106976;27;45491;-75
2022/09/17 02:59:52;;;;;;;0.43;0.13;;;22.20;72.70;;;;;;5105638;27;46643;-75
2022/09/17 03:02:23;;;;;;;0.63;0.20;;;22.30;72.80;;;;;;5106513;27;45319;-75
2022/09/17 03:04:52;;;;;;;0.28;0.20;;;22.20;72.70;;;;;;5106597;27;45241;-75
2022/09/17 03:07:20;;;;;;;0.55;0.30;;;22.30;72.70;;;;;;5106662;27;45396;-75
2022/09/17 03:09:47;;;;;;;0.95;0.30;;;22.20;72.40;;;;;;5105926;27;47529;-75
2022/09/17 03:12:14;;;;;;;0.32;0.20;;;22.30;72.50;;;;;;5106261;27;45404;-75
2022/09/17 03:14:41;;;;;;;1.30;0.20;;;22.20;72.50;;;;;;5106190;27;45331;-75
2022/09/17 03:17:08;;;;;;;0.60;0.20;;;22.20;72.10;;;;;;5106648;27;45419;-75
2022/09/17 03:19:35;;;;;;;0.45;0.20;;;22.20;72.40;;;;;;5106195;27;46634;-75
2022/09/17 03:22:11;;;;;;;1.10;0.20;;;22.20;72.40;;;;;;5106126;27;45255;-74
2022/09/17 03:24:38;;;;;;;0.35;0.20;;;22.20;72.30;;;;;;5106248;27;45378;-75
2022/09/17 03:27:05;;;;;;;1.30;0.20;;;22.20;72.20;;;;;;5105946;27;45553;-75
2022/09/17 03:29:32;;;;;;;0.10;0.10;;;22.20;72.00;;;;;;5105793;27;48056;-75
2022/09/17 03:31:59;;;;;;;0.50;0.30;;;22.20;72.10;;;;;;5105847;27;45195;-75
2022/09/17 03:34:26;;;;;;;0.30;0.20;;;22.20;72.20;;;;;;5105753;27;45289;-75
2022/09/17 03:36:53;;;;;;;0.30;0.20;;;22.20;72.20;;;;;;5106178;27;45580;-75
2022/09/17 03:39:21;;;;;;;0.35;0.15;;;22.20;72.30;;;;;;5105920;27;46980;-75
2022/09/17 03:41:50;;;;;;;1.25;0.30;;;22.20;72.30;;;;;;5105818;27;45645;-75
2022/09/17 03:44:18;;;;;;;0.70;0.20;;;22.20;72.40;;;;;;5105950;27;45325;-75
2022/09/17 03:46:44;;;;;;;1.33;0.20;;;22.20;72.40;;;;;;5106251;27;45291;-75
2022/09/17 03:49:11;;;;;;;0.17;0.10;;;22.20;72.40;;;;;;5105648;27;47792;-75
2022/09/17 03:51:38;;;;;;;0.20;0.20;;;22.20;72.30;;;;;;5105832;27;45342;-75
2022/09/17 03:54:05;;;;;;;0.57;0.25;;;22.20;72.30;;;;;;5104963;27;45266;-75
2022/09/17 03:56:42;;;;;;;1.08;0.20;;;22.20;72.30;;;;;;5105650;27;45530;-75
2022/09/17 03:59:09;;;;;;;0.57;0.30;;;22.30;72.20;;;;;;5105006;27;48267;-75
2022/09/17 04:01:36;;;;;;;0.43;0.20;;;22.30;72.30;;;;;;5105320;27;45339;-75
2022/09/17 04:04:03;;;;;;;0.30;0.15;;;22.20;72.10;;;;;;5105692;27;45352;-74
2022/09/17 04:06:30;;;;;;;0.20;0.10;;;22.20;72.20;;;;;;5105703;27;45388;-75
2022/09/17 04:08:57;;;;;;;0.63;0.10;;;22.30;72.20;;;;;;5105172;27;46588;-75
2022/09/17 04:11:24;;;;;;;0.20;0.20;;;22.30;72.20;;;;;;5107640;27;45255;-75
2022/09/17 04:13:52;;;;;;;0.47;0.28;;;22.20;72.10;;;;;;5108888;27;45358;-75
2022/09/17 04:16:18;;;;;;;0.20;0.10;;;22.20;71.90;;;;;;5109143;27;45126;-75
2022/09/17 04:18:45;;;;;;;0.50;0.15;;;22.20;72.00;;;;;;5108562;27;47548;-75
2022/09/17 04:21:12;;;;;;;0.65;0.25;;;22.20;72.00;;;;;;5108611;27;45191;-75
2022/09/17 04:23:42;;;;;;;0.43;0.22;;;22.20;71.90;;;;;;5108663;27;45352;-75
2022/09/17 04:26:09;;;;;;;0.52;0.35;;;22.20;72.10;;;;;;5108618;27;45385;-75
2022/09/17 04:28:36;;;;;;;1.15;0.13;;;22.20;72.20;;;;;;5107932;27;47117;-75
2022/09/17 04:31:04;;;;;;;0.50;0.10;;;22.20;72.00;;;;;;5108669;27;45228;-75
2022/09/17 04:33:31;;;;;;;0.93;0.30;;;22.20;72.00;;;;;;5108485;27;45350;-75
2022/09/17 04:35:57;;;;;;;0.30;0.20;;;22.20;72.10;;;;;;5108317;27;45709;-75
2022/09/17 04:38:30;;;;;;;0.63;0.30;;;22.20;72.00;;;;;;5108347;27;46558;-75
2022/09/17 04:40:57;;;;;;;0.22;0.10;;;22.20;72.10;;;;;;5108508;27;45952;-75
2022/09/17 04:43:23;;;;;;;0.50;0.20;;;22.20;72.20;;;;;;5108130;27;45350;-74
2022/09/17 04:45:50;;;;;;;0.52;0.15;;;22.20;72.20;;;;;;5108701;27;45359;-75
2022/09/17 04:48:18;;;;;;;0.25;0.10;;;22.20;72.10;;;;;;5091772;27;46594;-74
2022/09/17 04:50:45;;;;;;;0.47;0.20;;;22.30;72.10;;;;;;5104016;27;45289;-74
2022/09/17 04:53:14;;;;;;;1.08;0.40;;;22.20;72.50;;;;;;5107896;27;45226;-74
2022/09/17 04:55:42;;;;;;;0.35;0.10;;;22.20;71.60;;;;;;5107536;27;45346;-74
2022/09/17 04:58:10;;;;;;;0.60;0.20;;;22.20;70.70;;;;;;5099007;27;47047;-74
2022/09/17 05:00:37;;;;;;;0.28;0.20;;;22.20;70.90;;;;;;5107219;27;46018;-74
2022/09/17 05:03:04;;;;;;;0.45;0.22;;;22.20;70.60;;;;;;5103743;27;45382;-74
2022/09/17 05:05:32;;;;;;;1.88;0.30;;;22.10;70.40;;;;;;5107986;27;45242;-75
2022/09/17 05:07:59;;;;;;;0.95;0.40;;;22.20;70.20;;;;;;5107200;27;45596;-74
2022/09/17 05:10:25;;;;;;;0.45;0.30;;;22.10;70.10;;;;;;5103277;27;45406;-74
2022/09/17 05:12:54;;;;;;;1.75;0.40;;;22.20;70.50;;;;;;5099816;27;45416;-74
2022/09/17 05:15:22;;;;;;;0.25;0.20;;;22.20;70.60;;;;;;5106689;27;45210;-74
2022/09/17 05:17:52;;;;;;;1.65;0.50;;;22.20;70.60;;;;;;5105927;27;46881;-74
2022/09/17 05:20:19;;;;;;;0.52;0.20;;;22.20;70.90;;;;;;5107185;27;45341;-74
2022/09/17 05:22:49;;;;;;;1.02;0.40;;;22.20;71.00;;;;;;5104775;27;45263;-74
2022/09/17 05:25:17;;;;;;;0.47;0.20;;;22.20;71.20;;;;;;5107326;27;45399;-74
2022/09/17 05:27:45;;;;;;;0.60;0.20;;;22.20;71.30;;;;;;5106997;27;48403;-75
2022/09/17 05:30:12;;;;;;;1.27;0.30;;;22.20;71.40;;;;;;5107300;27;45924;-74
2022/09/17 05:32:39;;;;;;;1.92;0.15;;;22.20;71.50;;;;;;5107707;27;45581;-74
2022/09/17 05:35:08;;;;;;;0.15;0.10;;;22.20;71.40;;;;;;5107686;27;45508;-74
2022/09/17 05:37:41;;;;;;;0.65;0.30;;;22.20;71.50;;;;;;5107259;27;46389;-74
2022/09/17 05:40:10;;;;;;;0.47;0.20;;;22.20;71.50;;;;;;5107074;27;45415;-74
2022/09/17 05:42:37;;;;;;;0.20;0.10;;;22.30;71.60;;;;;;5107416;27;45288;-74
2022/09/17 05:45:05;;;;;;;1.85;0.32;;;22.20;71.50;;;;;;5107418;27;45426;-74
2022/09/17 05:47:34;;;;;;;0.88;0.35;;;22.20;71.90;;;;;;5106902;27;48226;-74
2022/09/17 05:50:00;;;;;;;1.50;0.45;;;22.30;71.90;;;;;;5106853;27;45756;-74
2022/09/17 05:52:28;;;;;;;0.80;0.30;;;22.30;71.90;;;;;;5106719;27;45442;-74
2022/09/17 05:54:55;;;;;;;0.20;0.17;;;22.30;72.00;;;;;;5106650;27;45415;-74
2022/09/17 05:57:23;;;;;;;0.65;0.00;;;22.30;71.90;;;;;;5106899;27;47234;-74
2022/09/17 05:59:50;;;;;;;1.00;0.32;;;22.30;71.90;;;;;;5106721;27;45292;-74
2022/09/17 06:02:16;;;;;;;0.95;0.30;;;22.30;72.00;;;;;;5106619;27;45275;-74
2022/09/17 06:04:44;;;;;;;1.95;0.25;;;22.30;72.10;;;;;;5106690;27;45327;-75
2022/09/17 06:07:10;;;;;;;1.17;0.32;;;22.30;72.10;;;;;;5106267;27;47851;-74
2022/09/17 06:09:39;;;;;;;0.47;0.20;;;22.30;72.10;;;;;;5106640;27;45274;-74
2022/09/17 06:12:06;;;;;;;0.68;0.30;;;22.30;72.10;;;;;;5106494;27;45374;-74
2022/09/17 06:14:34;;;;;;;0.88;0.20;;;22.30;72.20;;;;;;5106440;27;45268;-74
2022/09/17 06:17:01;;;;;;;0.68;0.30;;;22.30;72.10;;;;;;5106383;27;47407;-74
2022/09/17 06:19:28;;;;;;;0.98;0.20;;;22.30;72.30;;;;;;5106126;27;46138;-75
2022/09/17 06:21:55;;;;;;;0.80;0.30;;;22.20;72.30;;;;;;5106867;27;45397;-75
2022/09/17 06:24:22;;;;;;;1.30;0.30;;;22.30;72.60;;;;;;5107008;27;45222;-74
2022/09/17 06:26:49;;;;;;;1.25;0.30;;;22.20;72.50;;;;;;5106255;27;48211;-74
2022/09/17 06:29:16;;;;;;;0.43;0.15;;;22.20;72.70;;;;;;5105952;27;45294;-74
2022/09/17 06:31:45;;;;;;;0.40;0.20;;;22.20;72.60;;;;;;5106110;27;45308;-74
2022/09/17 06:34:11;;;;;;;0.57;0.30;;;22.20;72.80;;;;;;5096707;27;45269;-74
2022/09/17 06:36:38;;;;;;;0.80;0.43;;;22.20;73.10;;;;;;5085547;28;46889;-75
2022/09/17 06:39:05;;;;;;;0.60;0.30;;;22.20;72.60;;;;;;5100605;27;45417;-74
2022/09/17 06:41:32;;;;;;;0.20;0.20;;;22.20;72.40;;;;;;5093667;27;45353;-74
2022/09/17 06:44:00;;;;;;;0.95;0.20;;;22.20;72.40;;;;;;5106687;27;45607;-74
2022/09/17 06:46:27;;;;;;;0.20;0.20;;;22.30;72.50;;;;;;5105775;27;46438;-74
2022/09/17 06:48:55;;;;;;;1.23;0.30;;;22.20;72.30;;;;;;5106128;27;45625;-74
2022/09/17 06:51:22;;;;;;;0.80;0.20;;;22.30;72.30;;;;;;5102029;27;45345;-74
2022/09/17 06:53:49;;;;;;;0.60;0.40;;;22.30;72.40;;;;;;5106024;27;45299;-74
2022/09/17 06:56:16;;;;;;;0.70;0.25;;;22.30;73.40;;;;;;5098875;27;45389;-75
2022/09/17 06:58:43;;;;;;;0.77;0.32;;;22.20;72.40;;;;;;5104742;27;45285;-74
2022/09/17 07:01:11;;;;;;;0.65;0.20;;;22.20;72.20;;;;;;5103331;27;45394;-74
2022/09/17 07:03:38;;;;;;;0.85;0.32;;;22.30;72.40;;;;;;5105948;27;45567;-74
2022/09/17 07:06:09;;;;;;;0.77;0.20;;;22.30;72.40;;;;;;5111486;27;46577;-75
2022/09/17 07:08:36;;;;;;;0.93;0.20;;;22.20;72.40;;;;;;5126308;27;45499;-74
2022/09/17 07:11:03;;;;;;;1.17;0.70;;;22.20;72.40;;;;;;5109032;27;45415;-75
2022/09/17 07:13:30;;;;;;;2.00;0.40;;;22.20;72.60;;;;;;5106193;27;45343;-75
2022/09/17 07:15:59;;;;;;;0.77;0.40;;;22.30;72.70;;;;;;5106244;27;48430;-74
2022/09/17 07:18:26;;;;;;;0.32;0.28;;;22.20;72.80;;;;;;5115449;27;45406;-74
2022/09/17 07:20:53;;;;;;;0.88;0.40;;;22.20;72.80;;;;;;5105169;27;45300;-74
2022/09/17 07:23:22;;;;;;;0.98;0.20;;;22.20;72.80;;;;;;5105642;27;45566;-74
2022/09/17 07:25:52;;;;;;;1.33;0.40;;;22.20;73.10;;;;;;5105319;27;46592;-74
2022/09/17 07:28:19;;;;;;;0.30;0.22;;;22.20;72.90;;;;;;5105641;27;45318;-74
2022/09/17 07:30:47;;;;;;;0.25;0.20;;;22.20;72.90;;;;;;5105930;27;45205;-74
2022/09/17 07:33:15;;;;;;;1.52;0.50;;;22.20;73.50;;;;;;5105370;27;45264;-74
2022/09/17 07:35:53;;;;;;;0.80;0.28;;;22.20;73.00;;;;;;5100117;27;47077;-74
2022/09/17 07:38:30;;;;;;;0.52;0.20;;;22.20;73.00;;;;;;5095998;27;45312;-74
2022/09/17 07:40:58;;;;;;;2.00;0.20;;;22.20;72.90;;;;;;5105489;27;45207;-74
2022/09/17 07:43:25;;;;;;;0.22;0.17;;;22.20;72.80;;;;;;5105699;27;45371;-74
2022/09/17 07:45:52;;;;;;;1.25;0.40;;;22.20;72.80;;;;;;5108291;27;48523;-74
2022/09/17 07:48:19;;;;;;;1.45;0.20;;;22.30;72.80;;;;;;5107888;27;45487;-74
2022/09/17 07:50:46;;;;;;;0.40;0.30;;;22.30;72.70;;;;;;5108501;27;45443;-74
2022/09/17 07:53:13;;;;;;;0.63;0.30;;;22.20;72.60;;;;;;5108769;27;45197;-74
2022/09/17 07:55:42;;;;;;;1.00;0.30;;;22.20;72.90;;;;;;5108244;27;47893;-75
2022/09/17 07:58:15;;;;;;;1.30;0.50;;;22.30;72.70;;;;;;5108791;27;45326;-74
2022/09/17 08:00:45;;;;;;;0.95;0.30;;;22.30;72.70;;;;;;5098539;27;45233;-75
2022/09/17 08:03:11;;;;;;;0.45;0.20;;;22.30;73.40;;;;;;5108984;27;45465;-75
2022/09/17 08:05:38;;;;;;;0.63;0.20;;;22.30;72.60;;;;;;5108886;27;46596;-74
2022/09/17 08:08:05;;;;;;;1.10;0.38;;;22.30;72.50;;;;;;5108756;27;45399;-74
2022/09/17 08:10:32;;;;;;;1.27;0.30;;;22.30;72.50;;;;;;5108507;27;45276;-74
2022/09/17 08:13:00;;;;;;;0.43;0.20;;;22.30;72.30;;;;;;5108681;27;45490;-75
2022/09/17 08:15:27;;;;;;;0.90;0.30;;;22.30;71.80;;;;;;5107838;27;47485;-74
2022/09/17 08:17:54;;;;;;;0.60;0.20;;;22.30;71.20;;;;;;5108461;27;45246;-74
2022/09/17 08:20:23;;;;;;;0.93;0.20;;;22.30;71.10;;;;;;5108326;27;45319;-74
2022/09/17 08:22:49;;;;;;;0.60;0.20;;;22.30;70.80;;;;;;5108106;27;45380;-74
2022/09/17 08:25:16;;;;;;;1.80;0.35;;;22.30;70.30;;;;;;5107351;27;46850;-74
2022/09/17 08:27:43;;;;;;;0.60;0.20;;;22.30;69.80;;;;;;5107527;27;45307;-74
2022/09/17 08:30:12;;;;;;;0.43;0.20;;;22.20;69.10;;;;;;5107541;27;45315;-74
2022/09/17 08:32:41;;;;;;;1.52;0.32;;;22.20;69.20;;;;;;5106949;27;45493;-74
2022/09/17 08:35:10;;;;;;;2.10;0.47;;;22.30;69.20;;;;;;5107193;27;47557;-74
2022/09/17 08:37:41;;;;;;;1.00;0.43;;;22.20;69.50;;;;;;5106548;27;45481;-74
2022/09/17 08:40:13;;;;;;;1.38;0.52;;;22.20;70.00;;;;;;5107384;27;45359;-74
2022/09/17 08:42:47;;;;;;;2.33;0.40;;;22.20;70.30;;;;;;5107462;27;45485;-74
2022/09/17 08:45:17;;;;;;;0.93;0.30;;;22.20;70.30;;;;;;5104904;27;45329;-75
2022/09/17 08:47:47;;;;;;;1.17;0.52;;;22.30;70.30;;;;;;5107407;27;45305;-75
2022/09/17 08:50:16;;;;;;;1.23;0.40;;;22.30;70.50;;;;;;5108292;27;45406;-74
2022/09/17 08:53:07;;;;;;;1.52;0.30;;;22.30;70.60;;;;;;5108714;27;45399;-74
2022/09/17 08:55:40;;;;;;;1.45;0.50;;;22.30;70.70;;;;;;5107259;27;47884;-75
2022/09/17 08:58:37;;;;;;;0.75;0.38;;;22.30;70.70;;;;;;5108239;27;45315;-74
2022/09/17 09:01:16;;;;;;;0.93;0.30;;;22.30;70.90;;;;;;5107581;27;45318;-75
2022/09/17 09:04:05;;;;;;;0.63;0.25;;;22.30;70.80;;;;;;5108425;27;45515;-74
2022/09/17 09:06:37;;;;;;;2.78;0.60;;;22.30;70.80;;;;;;5107787;27;48563;-74
2022/09/17 09:09:10;;;;;;;2.42;0.40;;;22.30;71.00;;;;;;5108061;27;45221;-74
2022/09/17 09:11:37;;;;;;;1.30;0.50;;;22.30;70.90;;;;;;5107347;27;45267;-74
2022/09/17 09:14:10;;;;;;;0.98;0.20;;;22.30;70.80;;;;;;5107876;27;45285;-74
2022/09/17 09:16:41;;;;;;;1.75;0.45;;;22.30;70.90;;;;;;5107293;27;46302;-74
2022/09/17 09:19:19;;;;;;;1.85;0.38;;;22.30;71.00;;;;;;5107170;27;45266;-74
2022/09/17 09:22:00;;;;;;;1.23;0.38;;;22.30;71.30;;;;;;5107173;27;45460;-74
2022/09/17 09:24:36;;;;;;;2.10;0.45;;;22.30;71.30;;;;;;5107315;27;45262;-74
2022/09/17 09:27:14;;;;;;;2.55;0.55;;;22.30;71.30;;;;;;5107349;27;47061;-74
2022/09/17 09:29:52;;;;;;;1.00;0.30;;;22.30;71.30;;;;;;5107171;27;45280;-74
2022/09/17 09:32:33;;;;;;;0.75;0.20;;;22.30;71.20;;;;;;5107240;27;45224;-74
2022/09/17 09:35:02;;;;;;;1.42;0.40;;;22.30;71.70;;;;;;5107717;27;45365;-74
2022/09/17 09:37:32;;;;;;;0.85;0.35;;;22.30;71.40;;;;;;5107325;27;47143;-74
2022/09/17 09:40:07;;;;;;;2.58;0.60;;;22.40;71.60;;;;;;5107213;27;45430;-74
2022/09/17 09:42:38;;;;;;;2.08;0.30;;;22.30;71.60;;;;;;5106979;27;45365;-74
2022/09/17 09:45:15;;;;;;;0.88;0.40;;;22.30;71.40;;;;;;5107048;27;45471;-74
2022/09/17 09:47:53;;;;;;;0.52;0.30;;;22.30;71.40;;;;;;5104951;27;45394;-74
2022/09/17 09:50:39;;;;;;;0.50;0.22;;;22.40;71.20;;;;;;5106899;27;45616;-74
2022/09/17 09:53:19;;;;;;;0.55;0.20;;;22.40;71.00;;;;;;5107015;27;45383;-74
2022/09/17 09:56:01;;;;;;;0.40;0.20;;;22.40;71.00;;;;;;5106948;27;45191;-74
2022/09/17 09:58:34;;;;;;;3.00;0.40;;;22.40;71.00;;;;;;5106429;27;47291;-74
2022/09/17 10:01:00;;;;;;;1.15;0.20;;;22.40;71.00;;;;;;5106764;27;45293;-74
2022/09/17 10:03:31;;;;;;;0.98;0.30;;;22.40;71.00;;;;;;5106841;27;45296;-74
2022/09/17 10:05:59;;;;;;;0.93;0.20;;;22.40;71.00;;;;;;5106674;27;45235;-74
2022/09/17 10:08:28;;;;;;;0.90;0.22;;;22.40;70.80;;;;;;5105257;27;46666;-74
2022/09/17 10:10:57;;;;;;;0.65;0.25;;;22.40;70.80;;;;;;5106353;27;45367;-74
2022/09/17 10:13:25;;;;;;;1.00;0.28;;;22.40;70.80;;;;;;5106677;27;45349;-74
2022/09/17 10:15:52;;;;;;;1.08;0.30;;;22.40;70.70;;;;;;5106602;27;45197;-74
2022/09/17 10:18:20;;;;;;;0.47;0.30;;;22.40;70.80;;;;;;5106227;27;45569;-75
2022/09/17 10:21:18;;;;;;;0.20;0.20;;;22.40;70.80;;;;;;5106221;27;45300;-74
2022/09/17 10:23:45;;;;;;;0.85;0.40;;;22.40;71.90;;;;;;5106499;27;45281;-74
2022/09/17 10:26:22;;;;;;;1.08;0.40;;;22.40;71.00;;;;;;5106516;27;45474;-74
2022/09/17 10:28:51;;;;;;;1.55;0.40;;;22.40;71.00;;;;;;5105923;27;45576;-74
2022/09/17 10:31:18;;;;;;;1.63;0.47;;;22.40;71.00;;;;;;5106067;27;45394;-74
2022/09/17 10:33:54;;;;;;;1.00;0.40;;;22.40;70.70;;;;;;5106086;27;45382;-74
2022/09/17 10:36:41;;;;;;;0.30;0.20;;;22.30;70.80;;;;;;5106309;27;45399;-74
2022/09/17 10:39:33;;;;;;;1.77;0.30;;;22.30;70.80;;;;;;5105589;27;48120;-74
2022/09/17 10:42:01;;;;;;;0.45;0.20;;;22.30;70.80;;;;;;5097484;27;45303;-74
2022/09/17 10:44:29;;;;;;;0.57;0.20;;;22.30;71.30;;;;;;5106246;27;45263;-74
2022/09/17 10:47:03;;;;;;;0.52;0.22;;;22.30;70.50;;;;;;5100486;27;45597;-74
2022/09/17 10:49:41;;;;;;;0.38;0.10;;;22.40;70.50;;;;;;5085218;28;45544;-74
2022/09/17 10:52:14;;;;;;;1.70;0.30;;;22.30;70.30;;;;;;5085665;28;45239;-74
2022/09/17 10:55:12;;;;;;;0.35;0.10;;;22.40;70.30;;;;;;5085440;28;45217;-74
2022/09/17 10:58:04;;;;;;;1.33;0.47;;;22.40;70.30;;;;;;5085440;28;45261;-75
2022/09/17 11:00:42;;;;;;;0.93;0.30;;;22.40;70.10;;;;;;5083382;27;46892;-74
2022/09/17 11:03:45;;;;;;;1.58;0.40;;;22.40;70.10;;;;;;5085540;28;45898;-74
2022/09/17 11:06:45;;;;;;;0.63;0.20;;;22.40;70.00;;;;;;5086089;27;45233;-74
2022/09/17 11:09:25;;;;;;;0.52;0.20;;;22.40;69.80;;;;;;5085540;28;45681;-74
2022/09/17 11:12:19;;;;;;;0.32;0.20;;;22.40;69.80;;;;;;5085315;27;48591;-74
2022/09/17 11:14:52;;;;;;;1.10;0.17;;;22.40;69.70;;;;;;5068223;27;45332;-74
2022/09/17 11:17:35;;;;;;;0.80;0.22;;;22.40;69.70;;;;;;5064976;28;45488;-74
2022/09/17 11:20:20;;;;;;;0.38;0.10;;;22.40;70.10;;;;;;5064927;28;45382;-75
2022/09/17 11:22:58;;;;;;;0.45;0.20;;;22.40;69.00;;;;;;5064919;28;45249;-74
2022/09/17 11:25:37;;;;;;;0.52;0.25;;;22.40;70.00;;;;;;5064817;28;45408;-74
2022/09/17 11:28:23;;;;;;;0.38;0.10;;;22.40;70.00;;;;;;5064703;28;45384;-74
2022/09/17 11:31:03;;;;;;;0.75;0.20;;;22.30;69.90;;;;;;5064441;28;45519;-75
2022/09/17 11:34:04;;;;;;;0.63;0.20;;;22.30;70.10;;;;;;5064564;28;48415;-74
2022/09/17 11:36:38;;;;;;;2.25;0.22;;;22.40;70.20;;;;;;5064783;27;45379;-74
2022/09/17 11:39:14;;;;;;;1.02;0.30;;;22.30;71.20;;;;;;5062175;28;45392;-74
2022/09/17 11:41:46;;;;;;;0.30;0.10;;;22.30;70.30;;;;;;5064174;28;45241;-74
2022/09/17 11:44:17;;;;;;;0.20;0.20;;;22.30;70.50;;;;;;5064607;28;46777;-75
2022/09/17 11:46:47;;;;;;;0.63;0.30;;;22.30;70.80;;;;;;5064923;28;45291;-74
2022/09/17 11:49:24;;;;;;;1.15;0.20;;;22.30;70.80;;;;;;5064684;28;45273;-74
2022/09/17 11:51:56;;;;;;;0.45;0.17;;;22.30;70.90;;;;;;5065103;28;45379;-74
2022/09/17 11:54:28;;;;;;;0.77;0.17;;;22.30;71.10;;;;;;5064633;28;48248;-74
2022/09/17 11:57:05;;;;;;;0.35;0.17;;;22.30;71.10;;;;;;5064500;28;45202;-74
2022/09/17 11:59:36;;;;;;;0.20;0.20;;;22.30;71.20;;;;;;5065041;28;45289;-74
2022/09/17 12:02:11;;;;;;;1.08;0.50;;;22.30;71.20;;;;;;5064789;28;45263;-74
2022/09/17 12:04:44;;;;;;;0.80;0.20;;;22.40;71.30;;;;;;5064046;28;45546;-74
2022/09/17 12:07:27;;;;;;;0.55;0.20;;;22.30;71.30;;;;;;5064816;28;45315;-74
2022/09/17 12:09:59;;;;;;;0.45;0.15;;;22.40;71.40;;;;;;5064828;28;45259;-74
2022/09/17 12:12:29;;;;;;;0.45;0.30;;;22.40;71.50;;;;;;5065070;28;45386;-74
2022/09/17 12:15:01;;;;;;;0.47;0.20;;;22.40;71.60;;;;;;5064119;28;46253;-75
2022/09/17 12:17:34;;;;;;;0.85;0.25;;;22.40;71.60;;;;;;5061624;28;45311;-75
2022/09/17 12:20:06;;;;;;;0.80;0.20;;;22.40;71.70;;;;;;5064667;28;45396;-75
2022/09/17 12:22:38;;;;;;;0.10;0.10;;;22.40;71.80;;;;;;5064786;28;45574;-75
2022/09/17 12:25:11;;;;;;;0.68;0.20;;;22.40;71.70;;;;;;5064364;28;46294;-75
2022/09/17 12:27:45;;;;;;;0.70;0.20;;;22.30;71.70;;;;;;5064145;28;45431;-74
2022/09/17 12:30:25;;;;;;;0.77;0.20;;;22.40;71.80;;;;;;5082890;27;45375;-74
2022/09/17 12:33:12;;;;;;;0.40;0.20;;;22.30;71.80;;;;;;5086796;28;45413;-74
2022/09/17 12:39:38;;;;;;;0.45;0.30;;;22.30;71.90;;;;;;5087744;27;45476;-75
2022/09/17 12:42:16;;;;;;;0.13;0.10;;;22.30;71.90;;;;;;5087931;28;45319;-74
2022/09/17 12:45:22;;;;;;;0.45;0.15;;;22.30;72.00;;;;;;5068130;28;45289;-75
2022/09/17 12:48:14;;;;;;;0.50;0.20;;;22.30;72.10;;;;;;5045948;28;48219;-75
2022/09/17 12:50:55;;;;;;;0.47;0.20;;;22.40;72.00;;;;;;5079324;28;45469;-75
2022/09/17 12:53:27;;;;;;;2.97;0.40;;;22.30;72.00;;;;;;5086920;28;45326;-74
2022/09/17 12:56:16;;;;;;;0.70;0.20;;;22.30;72.10;;;;;;5067762;28;45142;-74
2022/09/17 12:59:10;;;;;;;0.77;0.20;;;22.40;72.20;;;;;;5081664;28;46331;-74
2022/09/17 13:01:45;;;;;;;0.50;0.20;;;22.30;72.20;;;;;;5087524;28;45513;-75
2022/09/17 13:04:23;;;;;;;0.52;0.22;;;22.30;72.10;;;;;;5085926;28;45268;-75
2022/09/17 13:07:16;;;;;;;0.45;0.22;;;22.30;72.20;;;;;;5087611;28;45494;-75
2022/09/17 13:10:01;;;;;;;0.25;0.20;;;22.30;72.20;;;;;;5087333;27;46878;-75
2022/09/17 13:12:35;;;;;;;1.23;0.20;;;22.30;72.20;;;;;;5087458;28;45183;-74
2022/09/17 13:15:26;;;;;;;0.65;0.25;;;22.30;72.20;;;;;;5086892;28;45221;-75
2022/09/17 13:17:59;;;;;;;0.45;0.20;;;22.30;72.40;;;;;;5087350;27;45435;-75